Time;durP1;ratioP1;P1;durP2;ratioP2;P2;SDS_P1;SDS_P2;PMS_P1;PMS_P2;Temp;Humidity;BMP_temperature;BMP_pressure;BME280_temperature;BME280_humidity;BME280_pressure;Samples;Min_cycle;Max_cycle;Signal;HPM_P1;HPM_P2
2023/12/11 00:01:21;;;;;;;;;;;;;;;16.63;45.39;98077.41;10367733;28;1163;-71
2023/12/11 00:06:17;;;;;;;;;;;;;;;16.63;45.41;98089.72;10368230;28;806;-72
2023/12/11 00:11:12;;;;;;;;;;;;;;;16.58;45.49;98083.91;10367948;28;1886;-73
2023/12/11 00:16:08;;;;;;;;;;;;;;;16.57;45.45;98087.50;10368036;28;848;-72
2023/12/11 00:21:04;;;;;;;;;;;;;;;16.54;45.63;98092.97;10368217;28;854;-73
2023/12/11 00:26:00;;;;;;;;;;;;;;;16.56;45.53;98091.94;10367659;28;969;-72
2023/12/11 00:30:56;;;;;;;;;;;;;;;16.55;45.86;98092.00;10367254;28;1953;-73
2023/12/11 00:35:52;;;;;;;;;;;;;;;16.50;45.44;98104.59;10368114;28;1400;-71
2023/12/11 00:40:48;;;;;;;;;;;;;;;16.48;45.61;98109.13;10367208;28;904;-73
2023/12/11 00:45:44;;;;;;;;;;;;;;;16.46;45.49;98122.38;10366758;28;891;-73
2023/12/11 00:50:40;;;;;;;;;;;;;;;16.47;45.58;98128.47;10366883;28;1902;-72
2023/12/11 00:55:36;;;;;;;;;;;;;;;16.41;45.77;98119.19;10366650;28;802;-71
2023/12/11 01:00:32;;;;;;;;;;;;;;;16.39;45.78;98111.41;10367111;28;861;-72
2023/12/11 01:05:27;;;;;;;;;;;;;;;16.37;45.64;98108.03;10366448;28;917;-71
2023/12/11 01:10:23;;;;;;;;;;;;;;;16.36;45.90;98102.88;10366673;28;1899;-72
2023/12/11 01:15:19;;;;;;;;;;;;;;;16.35;45.88;98112.56;10366191;28;833;-72
2023/12/11 01:20:15;;;;;;;;;;;;;;;16.33;45.89;98105.69;10366131;28;803;-72
2023/12/11 01:25:11;;;;;;;;;;;;;;;16.32;45.62;98104.00;10365941;28;945;-73
2023/12/11 01:30:07;;;;;;;;;;;;;;;16.29;45.74;98112.91;10366371;28;1890;-73
2023/12/11 01:35:03;;;;;;;;;;;;;;;16.26;45.80;98115.75;10369299;28;1390;-71
2023/12/11 01:39:59;;;;;;;;;;;;;;;16.27;45.91;98108.69;10374567;28;862;-72
2023/12/11 01:44:55;;;;;;;;;;;;;;;16.24;46.03;98108.91;10373745;28;810;-72
2023/12/11 01:49:50;;;;;;;;;;;;;;;16.25;45.76;98108.81;10374116;28;1906;-73
2023/12/11 01:54:46;;;;;;;;;;;;;;;16.25;45.99;98127.22;10373466;28;814;-72
2023/12/11 01:59:42;;;;;;;;;;;;;;;16.17;46.04;98108.44;10373226;28;817;-72
2023/12/11 02:04:38;;;;;;;;;;;;;;;16.18;46.17;98102.25;10373653;28;852;-72
2023/12/11 02:09:34;;;;;;;;;;;;;;;16.18;46.06;98115.38;10372755;28;1936;-72
2023/12/11 02:14:30;;;;;;;;;;;;;;;16.16;45.98;98102.31;10372659;28;813;-71
2023/12/11 02:19:26;;;;;;;;;;;;;;;16.14;45.96;98101.59;10373070;28;830;-71
2023/12/11 02:24:22;;;;;;;;;;;;;;;16.13;46.07;98099.91;10372263;28;854;-72
2023/12/11 02:29:19;;;;;;;;;;;;;;;16.13;45.95;98085.91;10372036;28;1955;-72
2023/12/11 02:34:15;;;;;;;;;;;;;;;16.13;46.12;98080.66;10371539;28;1234;-71
2023/12/11 02:39:11;;;;;;;;;;;;;;;16.11;46.13;98069.38;10372251;28;889;-71
2023/12/11 02:44:07;;;;;;;;;;;;;;;16.10;46.00;98062.47;10371288;28;921;-72
2023/12/11 02:49:03;;;;;;;;;;;;;;;16.08;46.16;98053.81;10370200;28;1897;-71
2023/12/11 02:53:59;;;;;;;;;;;;;;;16.08;46.01;98043.31;10371103;28;884;-71
2023/12/11 02:58:55;;;;;;;;;;;;;;;16.06;46.10;98045.19;10371500;28;815;-72
2023/12/11 03:03:51;;;;;;;;;;;;;;;16.05;46.19;98036.47;10370703;28;766;-71
2023/12/11 03:08:46;;;;;;;;;;;;;;;16.04;46.11;98042.66;10370715;28;838;-73
2023/12/11 03:13:42;;;;;;;;;;;;;;;16.02;46.12;98031.41;10370225;28;1894;-72
2023/12/11 03:18:38;;;;;;;;;;;;;;;16.00;46.10;98014.88;10370066;28;778;-72
2023/12/11 03:23:34;;;;;;;;;;;;;;;15.98;46.21;98012.38;10370564;28;927;-72
2023/12/11 03:28:30;;;;;;;;;;;;;;;15.97;46.12;98002.78;10371047;28;810;-72
2023/12/11 03:33:26;;;;;;;;;;;;;;;15.97;46.30;97994.06;10369842;28;1901;-72
2023/12/11 03:38:22;;;;;;;;;;;;;;;15.96;46.18;97995.00;10368669;28;1156;-71
2023/12/11 03:43:17;;;;;;;;;;;;;;;15.92;46.08;97986.47;10369330;28;873;-71
2023/12/11 03:48:13;;;;;;;;;;;;;;;15.95;46.27;97991.50;10368376;28;833;-72
2023/12/11 03:53:10;;;;;;;;;;;;;;;15.94;46.25;97989.00;10369298;28;1913;-72
2023/12/11 03:58:06;;;;;;;;;;;;;;;15.95;46.20;97995.94;10368222;28;1642;-72
2023/12/11 04:03:02;;;;;;;;;;;;;;;15.89;46.24;97973.53;10367814;28;1010;-72
2023/12/11 04:07:57;;;;;;;;;;;;;;;15.87;46.32;97978.03;10368200;28;786;-72
2023/12/11 04:12:53;;;;;;;;;;;;;;;15.91;46.29;97991.84;10367983;28;1905;-71
2023/12/11 04:17:49;;;;;;;;;;;;;;;15.90;46.23;97967.34;10367286;28;923;-71
2023/12/11 04:22:45;;;;;;;;;;;;;;;15.89;46.23;97955.13;10368228;28;786;-72
2023/12/11 04:27:41;;;;;;;;;;;;;;;15.87;46.25;97961.44;10367472;28;853;-71
2023/12/11 04:32:37;;;;;;;;;;;;;;;15.85;46.32;97963.31;10367862;28;1902;-71
2023/12/11 04:37:33;;;;;;;;;;;;;;;15.86;46.11;97955.34;10366941;28;1424;-71
2023/12/11 04:42:29;;;;;;;;;;;;;;;15.86;46.16;97947.44;10367669;28;914;-72
2023/12/11 04:47:24;;;;;;;;;;;;;;;15.86;46.10;97941.38;10366878;28;930;-72
2023/12/11 04:52:20;;;;;;;;;;;;;;;15.92;46.15;97940.97;10366168;28;1909;-72
2023/12/11 04:57:16;;;;;;;;;;;;;;;16.08;45.85;97943.44;10366631;28;847;-71
2023/12/11 05:02:12;;;;;;;;;;;;;;;16.08;45.66;97932.94;10367249;28;857;-72
2023/12/11 05:07:08;;;;;;;;;;;;;;;16.13;45.41;97917.69;10366424;28;814;-72
2023/12/11 05:12:04;;;;;;;;;;;;;;;16.17;45.68;97914.78;10365526;28;1901;-71
2023/12/11 05:17:00;;;;;;;;;;;;;;;16.28;45.21;97910.59;10366829;28;807;-73
2023/12/11 05:21:58;;;;;;;;;;;;;;;16.38;45.18;97904.63;10366687;28;890;-72
2023/12/11 05:26:54;;;;;;;;;;;;;;;16.46;44.87;97911.16;10366677;28;873;-72
2023/12/11 05:31:50;;;;;;;;;;;;;;;16.52;44.99;97916.00;10366140;28;1901;-73
2023/12/11 05:36:46;;;;;;;;;;;;;;;16.54;44.82;97922.00;10366586;28;1155;-72
2023/12/11 05:41:42;;;;;;;;;;;;;;;16.59;45.00;97919.91;10365232;28;822;-73
2023/12/11 05:46:37;;;;;;;;;;;;;;;16.69;44.90;97914.84;10366319;28;834;-72
2023/12/11 05:51:33;;;;;;;;;;;;;;;16.74;44.87;97929.41;10365557;28;1913;-72
2023/12/11 05:56:30;;;;;;;;;;;;;;;16.78;44.75;97924.78;10365489;28;807;-75
2023/12/11 06:01:26;;;;;;;;;;;;;;;16.80;44.81;97943.97;10365341;28;930;-72
2023/12/11 06:06:22;;;;;;;;;;;;;;;16.88;44.64;97925.84;10365353;28;804;-73
2023/12/11 06:11:18;;;;;;;;;;;;;;;16.85;44.96;97916.38;10365154;28;1905;-71
2023/12/11 06:16:15;;;;;;;;;;;;;;;16.90;45.00;97931.88;10365664;28;886;-73
2023/12/11 06:21:11;;;;;;;;;;;;;;;16.93;45.04;97933.44;10368463;28;970;-74
2023/12/11 06:26:07;;;;;;;;;;;;;;;16.92;45.39;97926.47;10371652;28;1239;-73
2023/12/11 06:31:03;;;;;;;;;;;;;;;16.99;45.06;97930.38;10360845;28;1897;-73
2023/12/11 06:35:59;;;;;;;;;;;;;;;17.02;45.22;97931.00;10329565;28;1717;-73
2023/12/11 06:40:55;;;;;;;;;;;;;;;17.01;45.23;97924.06;10329362;28;937;-72
2023/12/11 06:45:51;;;;;;;;;;;;;;;16.99;45.34;97923.31;10330437;28;750;-74
2023/12/11 06:50:47;;;;;;;;;;;;;;;17.05;45.13;97916.78;10329712;28;1914;-72
2023/12/11 06:55:42;;;;;;;;;;;;;;;17.00;45.40;97914.50;10329979;28;763;-72
2023/12/11 07:00:38;;;;;;;;;;;;;;;17.04;45.24;97910.69;10330389;28;929;-73
2023/12/11 07:05:34;;;;;;;;;;;;;;;17.03;45.17;97916.06;10329448;28;807;-73
2023/12/11 07:10:30;;;;;;;;;;;;;;;16.98;45.55;97907.66;10328998;28;1897;-74
2023/12/11 07:15:26;;;;;;;;;;;;;;;16.93;45.43;97907.97;10328567;28;799;-72
2023/12/11 07:20:22;;;;;;;;;;;;;;;16.91;45.39;97907.22;10328689;28;957;-72
2023/12/11 07:25:18;;;;;;;;;;;;;;;16.84;45.69;97919.94;10328167;28;840;-75
2023/12/11 07:30:14;;;;;;;;;;;;;;;16.75;45.96;97914.47;10328859;28;1898;-71
2023/12/11 07:35:11;;;;;;;;;;;;;;;16.76;45.94;97911.69;10326009;28;1374;-72
2023/12/11 07:40:07;;;;;;;;;;;;;;;16.74;45.92;97916.25;10309459;28;1220;-75
2023/12/11 07:45:04;;;;;;;;;;;;;;;16.78;45.89;97912.47;10327218;28;822;-72
2023/12/11 07:50:00;;;;;;;;;;;;;;;16.82;45.75;97910.47;10328091;28;1914;-73
2023/12/11 07:54:56;;;;;;;;;;;;;;;16.81;45.69;97891.22;10327376;28;863;-72
2023/12/11 07:59:52;;;;;;;;;;;;;;;16.83;45.62;97910.38;10327127;28;763;-72
2023/12/11 08:04:48;;;;;;;;;;;;;;;16.88;45.65;97906.59;10326366;28;1548;-73
2023/12/11 08:09:44;;;;;;;;;;;;;;;16.91;45.50;97916.91;10326709;28;1894;-73
2023/12/11 08:14:40;;;;;;;;;;;;;;;16.97;45.47;97930.47;10326047;28;913;-72
2023/12/11 08:19:36;;;;;;;;;;;;;;;16.97;45.54;97924.38;10327051;28;846;-72
2023/12/11 08:24:32;;;;;;;;;;;;;;;16.97;45.54;97919.09;10325714;28;933;-73
2023/12/11 08:29:27;;;;;;;;;;;;;;;17.01;45.13;97921.44;10326037;28;2026;-73
2023/12/11 08:34:23;;;;;;;;;;;;;;;17.05;45.31;97922.88;10325234;28;1224;-71
2023/12/11 08:39:19;;;;;;;;;;;;;;;17.00;45.48;97926.78;10325763;28;1059;-73
2023/12/11 08:44:15;;;;;;;;;;;;;;;17.04;45.31;97925.66;10324982;28;880;-71
2023/12/11 08:49:11;;;;;;;;;;;;;;;17.06;45.48;97945.66;10325358;28;1973;-72
2023/12/11 08:54:07;;;;;;;;;;;;;;;17.07;45.26;97949.94;10325028;28;798;-72
2023/12/11 08:59:03;;;;;;;;;;;;;;;17.09;45.21;97948.06;10325550;28;756;-72
2023/12/11 09:03:59;;;;;;;;;;;;;;;17.09;45.27;97952.50;10324711;28;878;-72
2023/12/11 09:08:55;;;;;;;;;;;;;;;17.08;45.33;97956.91;10324401;28;833;-72
2023/12/11 09:13:51;;;;;;;;;;;;;;;17.14;45.23;97963.56;10324544;28;1882;-72
2023/12/11 09:18:47;;;;;;;;;;;;;;;17.11;45.55;97960.25;10325580;28;819;-73
2023/12/11 09:23:43;;;;;;;;;;;;;;;17.09;45.55;97977.03;10324493;28;921;-72
2023/12/11 09:28:39;;;;;;;;;;;;;;;17.13;45.47;97980.28;10326033;28;849;-73
2023/12/11 09:33:35;;;;;;;;;;;;;;;17.14;45.35;97981.97;10325432;28;1885;-73
2023/12/11 09:38:30;;;;;;;;;;;;;;;17.09;45.53;97992.81;10324796;28;1259;-72
2023/12/11 09:43:26;;;;;;;;;;;;;;;17.14;45.39;97995.13;10324254;28;934;-74
2023/12/11 09:48:22;;;;;;;;;;;;;;;17.13;45.34;97985.53;10324202;28;909;-72
2023/12/11 09:53:18;;;;;;;;;;;;;;;17.11;45.63;97990.09;10323929;28;1973;-71
2023/12/11 09:58:14;;;;;;;;;;;;;;;17.18;45.46;97998.41;10331201;28;776;-73
2023/12/11 10:03:10;;;;;;;;;;;;;;;17.14;45.45;98004.84;10331366;28;865;-72
2023/12/11 10:08:06;;;;;;;;;;;;;;;17.14;45.44;98012.72;10331370;28;960;-71
2023/12/11 10:13:02;;;;;;;;;;;;;;;17.18;45.40;98027.34;10331013;28;1957;-71
2023/12/11 10:17:58;;;;;;;;;;;;;;;17.20;45.36;98041.25;10331601;28;893;-71
2023/12/11 10:22:54;;;;;;;;;;;;;;;17.18;45.57;98046.63;10331055;28;925;-71
2023/12/11 10:27:50;;;;;;;;;;;;;;;17.20;45.37;98042.09;10330584;28;896;-74
2023/12/11 10:32:46;;;;;;;;;;;;;;;17.18;45.34;98041.34;10330429;28;1886;-72
2023/12/11 10:37:43;;;;;;;;;;;;;;;17.23;45.27;98041.03;10330550;28;1164;-73
2023/12/11 10:42:39;;;;;;;;;;;;;;;17.19;45.35;98053.59;10330697;28;858;-75
2023/12/11 10:47:35;;;;;;;;;;;;;;;17.22;45.36;98074.44;10329897;28;854;-73
2023/12/11 10:52:31;;;;;;;;;;;;;;;17.19;45.67;98073.81;10329661;28;1965;-73
2023/12/11 10:57:27;;;;;;;;;;;;;;;17.20;45.46;98073.69;10329445;28;903;-72
2023/12/11 11:02:24;;;;;;;;;;;;;;;17.22;45.33;98092.88;10329855;28;810;-72
2023/12/11 11:07:19;;;;;;;;;;;;;;;17.21;45.55;98082.44;10327172;28;997;-73
2023/12/11 11:12:15;;;;;;;;;;;;;;;17.25;45.50;98095.28;10328899;28;1959;-72
2023/12/11 11:17:11;;;;;;;;;;;;;;;17.23;45.57;98091.91;10329277;28;881;-72
2023/12/11 11:22:07;;;;;;;;;;;;;;;17.23;45.41;98106.88;10328534;28;853;-72
2023/12/11 11:27:04;;;;;;;;;;;;;;;17.22;45.37;98111.31;10328870;28;890;-73
2023/12/11 11:32:00;;;;;;;;;;;;;;;17.22;45.47;98121.84;10328312;28;1953;-72
2023/12/11 11:36:56;;;;;;;;;;;;;;;17.25;45.40;98128.69;10327666;28;1299;-72
2023/12/11 11:41:51;;;;;;;;;;;;;;;17.24;45.58;98146.28;10327792;28;774;-71
2023/12/11 11:46:48;;;;;;;;;;;;;;;17.28;45.29;98152.19;10327771;28;876;-74
2023/12/11 11:51:44;;;;;;;;;;;;;;;17.25;45.56;98160.28;10328008;28;1906;-73
2023/12/11 11:56:40;;;;;;;;;;;;;;;17.27;45.58;98172.41;10327664;28;885;-71
2023/12/11 12:01:36;;;;;;;;;;;;;;;17.33;45.61;98178.22;10326950;28;917;-72
2023/12/11 12:06:31;;;;;;;;;;;;;;;17.28;45.56;98192.50;10327294;28;856;-71
2023/12/11 12:11:29;;;;;;;;;;;;;;;17.30;45.47;98187.16;10326777;28;1953;-74
2023/12/11 12:16:25;;;;;;;;;;;;;;;17.31;45.76;98189.69;10326396;28;977;-77
2023/12/11 12:21:21;;;;;;;;;;;;;;;17.29;45.70;98199.50;10325874;28;999;-72
2023/12/11 12:26:17;;;;;;;;;;;;;;;17.33;45.61;98207.19;10326288;28;778;-73
2023/12/11 12:31:13;;;;;;;;;;;;;;;17.29;45.72;98227.59;10325403;28;1951;-72
2023/12/11 12:36:09;;;;;;;;;;;;;;;17.29;45.50;98228.47;10325861;28;1211;-75
2023/12/11 12:41:05;;;;;;;;;;;;;;;17.30;45.50;98237.19;10325833;28;870;-72
2023/12/11 12:46:00;;;;;;;;;;;;;;;17.33;45.67;98249.31;10326243;28;854;-71
2023/12/11 12:50:56;;;;;;;;;;;;;;;17.31;45.64;98254.66;10325598;28;1910;-69
2023/12/11 12:55:52;;;;;;;;;;;;;;;17.30;45.76;98259.09;10325488;28;833;-72
2023/12/11 13:00:48;;;;;;;;;;;;;;;17.35;45.72;98268.50;10324810;28;833;-72
2023/12/11 13:05:44;;;;;;;;;;;;;;;17.34;45.66;98270.28;10325286;28;962;-72
2023/12/11 13:10:40;;;;;;;;;;;;;;;17.33;45.55;98278.28;10325155;28;1890;-72
2023/12/11 13:15:36;;;;;;;;;;;;;;;17.38;45.57;98284.09;10326168;28;837;-72
2023/12/11 13:20:33;;;;;;;;;;;;;;;17.36;45.67;98293.88;10324569;28;1515;-72
2023/12/11 13:25:29;;;;;;;;;;;;;;;17.37;45.54;98300.81;10324317;28;1041;-71
2023/12/11 13:30:25;;;;;;;;;;;;;;;17.38;45.71;98310.44;10327352;28;1945;-71
2023/12/11 13:35:21;;;;;;;;;;;;;;;17.35;45.55;98311.47;10332765;28;1177;-71
2023/12/11 13:40:17;;;;;;;;;;;;;;;17.36;45.59;98315.78;10332750;28;839;-72
2023/12/11 13:45:13;;;;;;;;;;;;;;;17.38;45.56;98315.72;10332496;28;903;-71
2023/12/11 13:50:09;;;;;;;;;;;;;;;17.37;45.33;98319.25;10331773;28;1902;-73
2023/12/11 13:55:05;;;;;;;;;;;;;;;17.37;45.57;98327.16;10331575;28;783;-72
2023/12/11 14:00:01;;;;;;;;;;;;;;;17.39;45.38;98351.63;10331681;28;826;-72
2023/12/11 14:04:57;;;;;;;;;;;;;;;17.39;45.56;98359.53;10331101;28;890;-72
2023/12/11 14:09:53;;;;;;;;;;;;;;;17.38;45.42;98366.59;10331079;28;1957;-72
2023/12/11 14:14:49;;;;;;;;;;;;;;;17.39;45.49;98376.16;10330784;28;801;-72
2023/12/11 14:19:45;;;;;;;;;;;;;;;17.39;45.41;98380.59;10330682;28;802;-72
2023/12/11 14:24:41;;;;;;;;;;;;;;;17.37;45.59;98388.63;10330406;28;834;-72
2023/12/11 14:29:37;;;;;;;;;;;;;;;17.38;45.56;98408.72;10330229;28;1948;-72
2023/12/11 14:34:33;;;;;;;;;;;;;;;17.37;45.52;98419.34;10329911;28;1302;-72
2023/12/11 14:39:31;;;;;;;;;;;;;;;17.39;45.70;98428.84;10330071;28;800;-73
2023/12/11 14:44:26;;;;;;;;;;;;;;;17.40;45.77;98435.81;10330185;28;902;-72
2023/12/11 14:49:22;;;;;;;;;;;;;;;17.38;45.66;98442.13;10329548;28;1905;-72
2023/12/11 14:54:18;;;;;;;;;;;;;;;17.37;45.75;98453.59;10330085;28;868;-72
2023/12/11 14:59:14;;;;;;;;;;;;;;;17.31;45.73;98458.28;10329163;28;915;-72
2023/12/11 15:04:10;;;;;;;;;;;;;;;17.27;45.77;98469.13;10328638;28;905;-72
2023/12/11 15:09:06;;;;;;;;;;;;;;;17.22;45.70;98473.84;10330029;28;830;-72
2023/12/11 15:14:08;;;;;;;;;;;;;;;17.19;45.98;98479.28;10330006;28;1898;-72
2023/12/11 15:19:03;;;;;;;;;;;;;;;17.15;45.79;98477.78;10328525;28;762;-69
2023/12/11 15:23:59;;;;;;;;;;;;;;;17.13;46.00;98485.75;10328906;28;930;-72
2023/12/11 15:28:55;;;;;;;;;;;;;;;17.18;45.85;98493.38;10329322;28;807;-71
2023/12/11 15:33:51;;;;;;;;;;;;;;;17.21;45.74;98501.09;10328992;28;1960;-71
2023/12/11 15:38:47;;;;;;;;;;;;;;;17.18;45.71;98506.53;10328357;28;993;-71
2023/12/11 15:43:43;;;;;;;;;;;;;;;17.18;45.85;98525.81;10328683;28;870;-71
2023/12/11 15:48:49;;;;;;;;;;;;;;;17.13;45.95;98527.88;10328516;28;814;-72
2023/12/11 15:53:44;;;;;;;;;;;;;;;17.10;45.76;98533.34;10327279;28;1914;-69
2023/12/11 15:58:40;;;;;;;;;;;;;;;17.04;45.98;98538.97;10328114;28;859;-72
2023/12/11 16:03:36;;;;;;;;;;;;;;;17.02;45.93;98538.22;10327271;28;776;-72
2023/12/11 16:08:32;;;;;;;;;;;;;;;16.99;45.93;98541.03;10327974;28;817;-69
2023/12/11 16:13:28;;;;;;;;;;;;;;;16.94;46.07;98537.81;10326275;28;1897;-69
2023/12/11 16:18:24;;;;;;;;;;;;;;;16.91;45.97;98538.84;10327349;28;839;-71
2023/12/11 16:23:20;;;;;;;;;;;;;;;16.84;46.11;98535.72;10327174;28;873;-69
2023/12/11 16:28:16;;;;;;;;;;;;;;;16.77;46.35;98544.94;10326999;28;862;-70
2023/12/11 16:33:12;;;;;;;;;;;;;;;16.72;46.35;98549.56;10326188;28;1898;-70
2023/12/11 16:38:08;;;;;;;;;;;;;;;16.74;46.27;98557.38;10326574;28;1128;-70
2023/12/11 16:43:03;;;;;;;;;;;;;;;16.72;46.12;98570.63;10326417;28;872;-70
2023/12/11 16:47:59;;;;;;;;;;;;;;;16.77;46.04;98568.63;10326446;28;811;-72
2023/12/11 16:52:55;;;;;;;;;;;;;;;16.81;46.10;98570.13;10326292;28;1914;-72
2023/12/11 16:57:51;;;;;;;;;;;;;;;16.93;45.70;98568.56;10325610;28;970;-71
2023/12/11 17:02:47;;;;;;;;;;;;;;;16.99;45.58;98576.09;10326369;28;830;-71
2023/12/11 17:07:43;;;;;;;;;;;;;;;17.07;45.50;98581.75;10324661;28;979;-71
2023/12/11 17:12:39;;;;;;;;;;;;;;;17.14;45.33;98581.41;10325999;28;1897;-71
2023/12/11 17:17:35;;;;;;;;;;;;;;;17.15;45.58;98588.34;10325587;28;933;-72
2023/12/11 17:22:31;;;;;;;;;;;;;;;17.21;45.31;98588.84;10325066;28;787;-72
2023/12/11 17:27:26;;;;;;;;;;;;;;;17.26;45.30;98599.09;10325901;28;862;-72
2023/12/11 17:32:22;;;;;;;;;;;;;;;17.26;45.48;98602.56;10324558;28;1957;-72
2023/12/11 17:37:23;;;;;;;;;;;;;;;17.31;45.46;98615.47;10324472;28;1291;-71
2023/12/11 17:42:19;;;;;;;;;;;;;;;17.29;45.49;98615.59;10324672;28;962;-72
2023/12/11 17:47:15;;;;;;;;;;;;;;;17.34;45.43;98620.56;10325386;28;926;-72
2023/12/11 17:52:11;;;;;;;;;;;;;;;17.37;45.50;98622.16;10324815;28;1921;-73
2023/12/11 17:57:06;;;;;;;;;;;;;;;17.34;45.54;98628.47;10324518;28;785;-72
2023/12/11 18:02:04;;;;;;;;;;;;;;;17.35;45.39;98626.69;10324309;28;798;-72
2023/12/11 18:07:00;;;;;;;;;;;;;;;17.40;45.43;98633.38;10324228;28;994;-72
2023/12/11 18:11:56;;;;;;;;;;;;;;;17.40;45.48;98646.56;10323469;28;1901;-72
2023/12/11 18:16:51;;;;;;;;;;;;;;;17.38;45.64;98647.59;10327115;28;866;-72
2023/12/11 18:21:47;;;;;;;;;;;;;;;17.40;45.33;98651.81;10330697;28;1075;-72
2023/12/11 18:26:43;;;;;;;;;;;;;;;17.41;45.51;98657.94;10331146;28;901;-72
2023/12/11 18:31:39;;;;;;;;;;;;;;;17.40;45.56;98677.31;10331463;28;1902;-72
2023/12/11 18:36:35;;;;;;;;;;;;;;;17.43;45.34;98677.97;10331270;28;1105;-71
2023/12/11 18:41:31;;;;;;;;;;;;;;;17.45;45.31;98688.44;10330118;28;969;-71
2023/12/11 18:46:27;;;;;;;;;;;;;;;17.42;45.36;98689.47;10331186;28;870;-72
2023/12/11 18:51:23;;;;;;;;;;;;;;;17.47;45.52;98694.44;10329639;28;1971;-72
2023/12/11 18:56:19;;;;;;;;;;;;;;;17.43;45.53;98704.31;10330128;28;768;-72
2023/12/11 19:01:15;;;;;;;;;;;;;;;17.45;45.34;98712.16;10330428;28;830;-72
2023/12/11 19:06:10;;;;;;;;;;;;;;;17.47;45.35;98711.09;10329734;28;759;-72
2023/12/11 19:11:08;;;;;;;;;;;;;;;17.46;45.31;98716.47;10329138;28;1905;-72
2023/12/11 19:16:04;;;;;;;;;;;;;;;17.43;45.50;98709.59;10329933;28;844;-71
2023/12/11 19:20:59;;;;;;;;;;;;;;;17.47;45.43;98721.63;10329665;28;849;-72
2023/12/11 19:25:55;;;;;;;;;;;;;;;17.47;45.31;98713.72;10328877;28;913;-72
2023/12/11 19:30:51;;;;;;;;;;;;;;;17.46;45.53;98721.72;10327635;28;1906;-72
2023/12/11 19:35:47;;;;;;;;;;;;;;;17.49;45.05;98721.56;10328226;28;1235;-71
2023/12/11 19:40:43;;;;;;;;;;;;;;;17.49;45.30;98722.41;10328189;28;973;-72
2023/12/11 19:45:39;;;;;;;;;;;;;;;17.48;45.43;98738.31;10328578;28;783;-72
2023/12/11 19:50:35;;;;;;;;;;;;;;;17.51;45.28;98731.06;10328469;28;1909;-72
2023/12/11 19:55:31;;;;;;;;;;;;;;;17.51;45.22;98735.50;10328271;28;767;-72
2023/12/11 20:00:27;;;;;;;;;;;;;;;17.50;45.27;98731.13;10328467;28;857;-72
2023/12/11 20:05:22;;;;;;;;;;;;;;;17.53;45.11;98738.88;10327356;28;849;-71
2023/12/11 20:10:18;;;;;;;;;;;;;;;17.52;45.12;98735.38;10327066;28;1902;-72
2023/12/11 20:15:14;;;;;;;;;;;;;;;17.53;45.25;98752.06;10326925;28;905;-72
2023/12/11 20:20:10;;;;;;;;;;;;;;;17.56;45.31;98759.78;10326120;28;1328;-72
2023/12/11 20:25:06;;;;;;;;;;;;;;;17.52;45.26;98761.72;10326604;28;801;-72
2023/12/11 20:30:02;;;;;;;;;;;;;;;17.53;45.34;98766.09;10326966;28;1955;-71
2023/12/11 20:34:58;;;;;;;;;;;;;;;17.56;45.31;98767.69;10326304;28;1096;-71
2023/12/11 20:39:54;;;;;;;;;;;;;;;17.51;45.34;98770.59;10326278;28;970;-72
2023/12/11 20:44:50;;;;;;;;;;;;;;;17.48;45.17;98765.50;10325427;28;904;-71
2023/12/11 20:49:46;;;;;;;;;;;;;;;17.47;45.44;98779.59;10325761;28;1905;-71
2023/12/11 20:54:42;;;;;;;;;;;;;;;17.43;45.46;98787.78;10325766;28;842;-72
2023/12/11 20:59:38;;;;;;;;;;;;;;;17.41;45.49;98795.75;10325647;28;819;-72
2023/12/11 21:04:34;;;;;;;;;;;;;;;17.43;45.47;98800.94;10324861;28;912;-72
2023/12/11 21:09:29;;;;;;;;;;;;;;;17.41;45.41;98792.28;10325417;28;802;-72
2023/12/11 21:14:25;;;;;;;;;;;;;;;17.38;45.44;98801.19;10325203;28;1875;-72
2023/12/11 21:19:21;;;;;;;;;;;;;;;17.40;45.38;98801.97;10325323;28;770;-72
2023/12/11 21:24:17;;;;;;;;;;;;;;;17.39;45.39;98812.59;10325778;28;782;-72
2023/12/11 21:29:13;;;;;;;;;;;;;;;17.37;45.31;98810.06;10325637;28;897;-71
2023/12/11 21:34:09;;;;;;;;;;;;;;;17.37;45.33;98810.06;10325145;28;1898;-71
2023/12/11 21:39:05;;;;;;;;;;;;;;;17.38;45.35;98814.38;10324929;28;786;-72
2023/12/11 21:44:01;;;;;;;;;;;;;;;17.36;45.58;98812.75;10324731;28;956;-72
2023/12/11 21:48:59;;;;;;;;;;;;;;;17.34;45.42;98814.63;10324631;28;1102;-72
2023/12/11 21:53:55;;;;;;;;;;;;;;;17.32;45.40;98827.91;10330412;28;1918;-71
2023/12/11 21:58:51;;;;;;;;;;;;;;;17.37;45.26;98832.88;10332174;28;971;-72
2023/12/11 22:03:47;;;;;;;;;;;;;;;17.34;45.41;98833.06;10332115;28;822;-72
2023/12/11 22:08:43;;;;;;;;;;;;;;;17.30;45.61;98835.88;10332295;28;966;-72
2023/12/11 22:13:39;;;;;;;;;;;;;;;17.28;45.68;98853.53;10332302;28;1963;-72
2023/12/11 22:18:35;;;;;;;;;;;;;;;17.30;45.42;98854.31;10331552;28;888;-72
2023/12/11 22:23:31;;;;;;;;;;;;;;;17.29;45.53;98859.66;10331351;28;953;-72
2023/12/11 22:28:27;;;;;;;;;;;;;;;17.28;45.59;98852.69;10331202;28;954;-71
2023/12/11 22:33:23;;;;;;;;;;;;;;;17.26;45.43;98873.00;10331578;28;1906;-71
2023/12/11 22:38:19;;;;;;;;;;;;;;;17.24;45.52;98865.19;10331619;28;1155;-71
2023/12/11 22:43:15;;;;;;;;;;;;;;;17.27;45.55;98878.19;10330591;28;918;-72
2023/12/11 22:48:13;;;;;;;;;;;;;;;17.23;45.41;98889.81;10330498;28;762;-72
2023/12/11 22:53:09;;;;;;;;;;;;;;;17.22;45.40;98893.38;10330774;28;1914;-72
2023/12/11 22:58:05;;;;;;;;;;;;;;;17.21;45.60;98894.34;10330012;28;909;-72
2023/12/11 23:03:01;;;;;;;;;;;;;;;17.24;45.57;98902.06;10328520;28;968;-72
2023/12/11 23:07:57;;;;;;;;;;;;;;;17.23;45.51;98902.13;10329764;28;821;-72
2023/12/11 23:12:52;;;;;;;;;;;;;;;17.20;45.48;98908.41;10329454;28;1906;-72
2023/12/11 23:17:48;;;;;;;;;;;;;;;17.18;45.68;98899.75;10330202;28;859;-72
2023/12/11 23:22:44;;;;;;;;;;;;;;;17.18;45.47;98899.75;10329213;28;798;-72
2023/12/11 23:27:40;;;;;;;;;;;;;;;17.19;45.49;98896.19;10328959;28;784;-72
2023/12/11 23:32:36;;;;;;;;;;;;;;;17.20;45.65;98892.63;10328344;28;1894;-72
2023/12/11 23:37:32;;;;;;;;;;;;;;;17.17;45.58;98898.06;10329643;28;1334;-72
2023/12/11 23:42:28;;;;;;;;;;;;;;;17.16;45.57;98896.38;10327739;28;1387;-72
2023/12/11 23:47:24;;;;;;;;;;;;;;;17.19;45.61;98896.19;10328087;28;814;-72
2023/12/11 23:52:20;;;;;;;;;;;;;;;17.15;45.49;98897.28;10327826;28;1918;-72
2023/12/11 23:57:16;;;;;;;;;;;;;;;17.16;45.56;98901.63;10328265;28;848;-71
